Time;durP1;ratioP1;P1;durP2;ratioP2;P2;SDS_P1;SDS_P2;PMS_P1;PMS_P2;Temp;Humidity;BMP_temperature;BMP_pressure;BME280_temperature;BME280_humidity;BME280_pressure;Samples;Min_cycle;Max_cycle;Signal;HPM_P1;HPM_P2
2022/03/03 00:01:56;;;;;;;24.00;12.82;;;;;;;1.17;64.00;99165.28;5134963;27;20054;-92
2022/03/03 00:04:25;;;;;;;28.38;15.15;;;;;;;1.18;63.87;99160.94;5132710;28;20046;-94
2022/03/03 00:06:51;;;;;;;36.97;17.60;;;;;;;1.15;64.74;99158.25;5135805;27;20070;-93
2022/03/03 00:09:16;;;;;;;35.70;16.92;;;;;;;1.31;65.11;99176.00;5141197;27;20304;-94
2022/03/03 00:11:46;;;;;;;32.83;18.00;;;;;;;1.22;64.99;99153.13;5145043;27;20506;-93
2022/03/03 00:14:12;;;;;;;36.47;19.98;;;;;;;1.17;65.49;99146.06;5132187;28;20047;-94
2022/03/03 00:16:38;;;;;;;43.00;22.88;;;;;;;1.26;64.89;99163.66;5131781;28;20415;-92
2022/03/03 00:19:04;;;;;;;37.45;20.83;;;;;;;1.24;65.32;99150.56;5132352;27;20131;-94
2022/03/03 00:21:29;;;;;;;39.90;20.35;;;;;;;1.19;65.99;99153.09;5137486;27;20050;-94
2022/03/03 00:23:55;;;;;;;39.38;19.83;;;;;;;1.22;66.47;99163.63;5134286;27;20058;-95
2022/03/03 00:26:21;;;;;;;30.88;16.45;;;;;;;1.17;66.28;99138.19;5137241;27;20047;-93
2022/03/03 00:28:48;;;;;;;28.85;15.68;;;;;;;1.17;65.50;99138.19;5145158;27;20031;-92
2022/03/03 00:31:15;;;;;;;28.60;15.07;;;;;;;1.37;65.47;99176.09;5126185;27;20039;-94
2022/03/03 00:33:40;;;;;;;25.35;14.68;;;;;;;1.14;65.80;99135.53;5120758;27;20054;-94
2022/03/03 00:36:06;;;;;;;32.88;19.25;;;;;;;1.11;66.45;99136.38;5130333;27;20047;-92
2022/03/03 00:38:32;;;;;;;37.67;19.88;;;;;;;1.19;66.72;99155.72;5117960;28;20067;-93
2022/03/03 00:40:58;;;;;;;33.72;17.15;;;;;;;1.22;66.29;99161.00;5117786;28;20047;-93
2022/03/03 00:43:27;;;;;;;28.83;16.60;;;;;;;1.07;66.24;99141.53;5121855;27;20043;-93
2022/03/03 00:45:54;;;;;;;25.38;14.00;;;;;;;1.06;66.22;99150.22;5120738;27;20054;-93
2022/03/03 00:48:20;;;;;;;24.15;13.85;;;;;;;1.11;63.93;99161.69;5117855;28;20095;-92
2022/03/03 00:50:46;;;;;;;25.85;14.48;;;;;;;1.14;65.19;99157.38;5117588;28;20071;-93
2022/03/03 00:53:12;;;;;;;23.42;12.63;;;;;;;1.09;63.39;99142.44;5127173;27;20035;-92
2022/03/03 00:55:40;;;;;;;25.02;12.98;;;;;;;1.33;63.30;99173.41;5129392;27;20046;-93
2022/03/03 00:58:06;;;;;;;27.23;14.10;;;;;;;1.30;62.01;99158.53;5117543;28;20497;-93
2022/03/03 01:00:32;;;;;;;23.42;12.10;;;;;;;1.19;60.10;99134.78;5117136;28;20035;-93
2022/03/03 01:02:59;;;;;;;18.17;10.77;;;;;;;1.27;56.94;99120.91;5127860;27;20540;-94
2022/03/03 01:05:26;;;;;;;17.08;10.15;;;;;;;1.38;56.47;99124.56;5117513;27;20430;-94
2022/03/03 01:07:55;;;;;;;21.45;10.90;;;;;;;1.50;57.42;99129.13;5128088;27;20165;-92
2022/03/03 01:10:21;;;;;;;19.67;10.45;;;;;;;1.53;58.85;99126.53;5120373;27;20427;-94
2022/03/03 01:12:47;;;;;;;18.77;9.82;;;;;;;1.43;57.73;99117.63;5131590;27;20047;-93
2022/03/03 01:15:13;;;;;;;16.20;9.88;;;;;;;1.63;56.15;99128.44;5132160;27;20036;-93
2022/03/03 01:17:40;;;;;;;18.50;10.40;;;;;;;1.69;55.65;99135.50;5133170;27;20043;-93
2022/03/03 01:20:09;;;;;;;20.73;10.50;;;;;;;1.79;55.49;99137.41;5137361;27;20400;-93
2022/03/03 01:22:38;;;;;;;18.23;10.50;;;;;;;1.62;54.82;99100.44;5127339;27;20039;-93
2022/03/03 01:25:08;;;;;;;20.13;10.38;;;;;;;1.64;55.80;99109.22;5100575;28;20044;-93
2022/03/03 01:27:34;;;;;;;22.83;11.77;;;;;;;1.79;57.01;99137.41;5128573;27;20522;-93
2022/03/03 01:30:01;;;;;;;20.15;11.65;;;;;;;1.60;57.90;99108.28;5120000;27;20047;-93
2022/03/03 01:32:29;;;;;;;21.60;11.98;;;;;;;1.55;56.28;99096.88;5117917;27;20044;-93
2022/03/03 01:34:58;;;;;;;20.58;11.48;;;;;;;1.64;55.93;99115.34;5117450;27;20044;-94
2022/03/03 01:37:25;;;;;;;18.38;11.05;;;;;;;1.58;55.21;99098.63;5116871;28;20093;-92
2022/03/03 01:39:51;;;;;;;19.40;11.55;;;;;;;1.59;55.94;99097.81;5130647;27;20065;-93
2022/03/03 01:42:17;;;;;;;23.15;11.07;;;;;;;1.62;54.47;99100.44;5128185;27;20036;-93
2022/03/03 01:44:44;;;;;;;22.02;11.43;;;;;;;1.66;54.35;99101.38;5123933;27;20044;-92
2022/03/03 01:47:17;;;;;;;17.90;10.98;;;;;;;1.69;55.57;99089.19;5115899;28;20519;-93
2022/03/03 01:49:46;;;;;;;23.75;11.68;;;;;;;1.76;54.74;99095.41;5122563;27;20081;-90
2022/03/03 01:52:12;;;;;;;21.35;11.27;;;;;;;1.83;56.47;99113.84;5116466;28;20072;-93
2022/03/03 01:54:39;;;;;;;22.52;11.05;;;;;;;1.73;57.73;99101.47;5127852;27;20039;-94
2022/03/03 01:57:05;;;;;;;25.20;12.65;;;;;;;1.73;59.50;99122.44;5122811;27;20047;-93
2022/03/03 01:59:31;;;;;;;25.33;12.43;;;;;;;1.49;59.41;99077.56;5116157;28;20108;-93
2022/03/03 02:02:00;;;;;;;22.42;11.90;;;;;;;1.39;59.89;99073.94;5124356;27;20047;-94
2022/03/03 02:04:27;;;;;;;23.08;11.80;;;;;;;1.46;60.26;99080.13;5121277;27;20067;-93
2022/03/03 02:06:53;;;;;;;21.52;12.23;;;;;;;1.48;61.44;99084.53;5119420;27;20039;-92
2022/03/03 02:09:19;;;;;;;22.50;12.38;;;;;;;1.48;60.78;99084.53;5118548;27;20089;-92
2022/03/03 02:11:52;;;;;;;28.17;12.93;;;;;;;1.42;58.26;99058.25;5126387;27;20036;-93
2022/03/03 02:14:18;;;;;;;23.85;12.40;;;;;;;1.46;59.98;99070.53;5116680;28;20048;-91
2022/03/03 02:16:44;;;;;;;27.35;12.48;;;;;;;1.49;59.29;99065.31;5121576;27;20035;-93
2022/03/03 02:19:14;;;;;;;23.52;12.30;;;;;;;1.42;60.58;99059.13;5119897;27;20044;-94
2022/03/03 02:21:43;;;;;;;21.60;11.63;;;;;;;1.43;60.86;99066.13;5117637;27;20523;-94
2022/03/03 02:24:09;;;;;;;22.67;11.65;;;;;;;1.38;60.74;99057.31;5129903;27;20050;-93
2022/03/03 02:26:39;;;;;;;23.00;12.15;;;;;;;1.38;61.52;99052.06;5116559;28;20485;-93
2022/03/03 02:29:05;;;;;;;22.25;11.50;;;;;;;1.58;60.75;99075.06;5130159;27;20038;-92
2022/03/03 02:31:33;;;;;;;21.17;11.10;;;;;;;1.58;63.05;99073.34;5126331;27;20455;-95
2022/03/03 02:34:00;;;;;;;25.77;12.65;;;;;;;1.49;63.40;99046.97;5131011;27;20043;-94
2022/03/03 02:36:30;;;;;;;24.25;12.38;;;;;;;1.40;63.31;99032.00;5124286;27;20074;-93
2022/03/03 02:38:59;;;;;;;18.80;10.77;;;;;;;1.38;55.42;99031.09;5116681;27;20480;-93
2022/03/03 02:41:26;;;;;;;21.80;11.90;;;;;;;1.61;53.96;99048.91;5127895;27;20051;-92
2022/03/03 02:43:52;;;;;;;22.98;10.75;;;;;;;1.57;55.00;99034.88;5117563;28;20044;-92
2022/03/03 02:46:18;;;;;;;19.20;11.80;;;;;;;1.48;60.84;99031.25;5120789;27;20039;-92
2022/03/03 02:48:44;;;;;;;20.55;11.70;;;;;;;1.60;63.74;99073.34;5129784;27;20039;-93
2022/03/03 02:51:10;;;;;;;25.05;12.25;;;;;;;1.51;63.86;99066.22;5122404;27;20067;-93
2022/03/03 02:53:39;;;;;;;20.80;11.70;;;;;;;1.28;64.38;99041.44;5115185;28;20036;-93
2022/03/03 02:56:08;;;;;;;18.48;11.45;;;;;;;1.27;65.57;99065.88;5130695;27;20096;-93
2022/03/03 02:58:34;;;;;;;21.53;11.73;;;;;;;1.06;65.94;99043.72;5134836;27;20035;-93
2022/03/03 03:01:03;;;;;;;19.27;10.77;;;;;;;0.93;65.53;99034.84;5127562;27;20035;-93
2022/03/03 03:03:29;;;;;;;22.10;11.63;;;;;;;0.90;66.46;99024.28;5116693;28;20404;-93
2022/03/03 03:05:56;;;;;;;21.15;12.25;;;;;;;0.95;65.99;99026.97;5125898;27;20080;-92
2022/03/03 03:08:22;;;;;;;23.50;12.68;;;;;;;0.97;67.18;99030.50;5135787;27;20035;-92
2022/03/03 03:10:47;;;;;;;22.05;11.63;;;;;;;0.88;67.18;99014.66;5127004;27;20059;-93
2022/03/03 03:13:15;;;;;;;19.15;11.27;;;;;;;1.15;65.40;99037.75;5115217;28;20082;-93
2022/03/03 03:15:41;;;;;;;21.50;11.18;;;;;;;1.14;61.82;99030.75;5115597;28;20036;-93
2022/03/03 03:18:09;;;;;;;24.30;11.60;;;;;;;0.88;61.74;99014.66;5115081;28;20063;-94
2022/03/03 03:20:35;;;;;;;18.80;10.10;;;;;;;0.70;61.55;99004.78;5121410;28;20035;-93
2022/03/03 03:23:01;;;;;;;19.33;10.85;;;;;;;0.77;61.24;99024.97;5135852;28;20055;-93
2022/03/03 03:25:27;;;;;;;19.58;10.52;;;;;;;0.66;60.22;99002.97;5115524;28;20047;-94
2022/03/03 03:27:53;;;;;;;16.85;8.93;;;;;;;0.81;59.63;98998.84;5131765;28;20100;-93
2022/03/03 03:30:20;;;;;;;21.45;10.20;;;;;;;0.85;59.26;98994.56;5129519;28;20365;-92
2022/03/03 03:32:49;;;;;;;16.40;9.05;;;;;;;0.92;58.80;99001.63;5129115;28;20043;-95
2022/03/03 03:35:15;;;;;;;17.67;10.45;;;;;;;0.97;59.90;99034.00;5129432;28;20561;-94
2022/03/03 03:37:41;;;;;;;18.27;9.85;;;;;;;0.98;60.02;99030.53;5124352;28;20050;-94
2022/03/03 03:40:08;;;;;;;19.30;9.45;;;;;;;1.01;59.50;99017.47;5131217;28;20089;-93
2022/03/03 03:42:38;;;;;;;19.35;10.40;;;;;;;0.92;58.46;99008.63;5131551;28;20119;-93
2022/03/03 03:45:05;;;;;;;19.15;10.50;;;;;;;0.93;58.53;99006.03;5134046;28;20125;-92
2022/03/03 03:47:32;;;;;;;16.98;9.25;;;;;;;1.22;61.36;99037.00;5119627;28;20571;-93
2022/03/03 03:50:02;;;;;;;19.83;10.27;;;;;;;1.15;59.84;99019.41;5125301;28;20047;-94
2022/03/03 03:52:28;;;;;;;23.67;10.57;;;;;;;1.05;60.21;98999.22;5115214;28;20043;-93
2022/03/03 03:54:54;;;;;;;23.05;10.93;;;;;;;1.18;60.41;99022.97;5124739;28;20042;-93
2022/03/03 03:57:19;;;;;;;21.83;10.70;;;;;;;1.21;60.75;99023.03;5123364;28;20126;-93
2022/03/03 03:59:45;;;;;;;18.73;9.93;;;;;;;1.18;61.54;99022.09;5133531;28;20066;-93
2022/03/03 04:02:16;;;;;;;18.52;10.07;;;;;;;1.06;60.38;99009.69;5126325;28;20055;-93
2022/03/03 04:04:46;;;;;;;16.10;8.95;;;;;;;1.05;59.48;99012.31;5125348;27;20040;-93
2022/03/03 04:07:12;;;;;;;16.98;9.48;;;;;;;1.28;61.02;99044.97;5134930;27;20365;-94
2022/03/03 04:09:38;;;;;;;19.33;10.15;;;;;;;1.12;62.30;99011.53;5122067;27;20118;-93
2022/03/03 04:12:07;;;;;;;21.40;11.07;;;;;;;1.21;63.24;99040.47;5139341;27;20043;-92
2022/03/03 04:14:33;;;;;;;19.35;10.73;;;;;;;0.99;64.61;99021.81;5119290;28;20122;-92
2022/03/03 04:16:59;;;;;;;22.13;12.27;;;;;;;0.93;64.33;99021.75;5118547;28;20075;-93
2022/03/03 04:19:25;;;;;;;21.45;11.32;;;;;;;0.84;65.60;99007.63;5125861;27;20130;-92
2022/03/03 04:21:52;;;;;;;21.00;10.65;;;;;;;0.80;66.38;99006.66;5133159;27;20047;-92
2022/03/03 04:24:18;;;;;;;20.05;10.32;;;;;;;0.81;67.29;99022.41;5118684;28;20078;-93
2022/03/03 04:26:44;;;;;;;18.30;10.00;;;;;;;0.72;67.13;99009.19;5138863;27;20512;-93
2022/03/03 04:29:12;;;;;;;18.02;9.38;;;;;;;0.67;66.94;99007.34;5132563;27;20042;-93
2022/03/03 04:31:38;;;;;;;22.73;10.13;;;;;;;0.70;66.23;99020.50;5138538;27;20050;-93
2022/03/03 04:34:04;;;;;;;16.52;9.07;;;;;;;0.60;65.09;98988.91;5139056;27;20430;-93
2022/03/03 04:36:30;;;;;;;15.52;8.77;;;;;;;0.69;64.93;99014.34;5139138;27;20039;-92
2022/03/03 04:38:57;;;;;;;17.27;9.15;;;;;;;0.57;66.00;98981.03;5139062;27;20491;-93
2022/03/03 04:41:23;;;;;;;17.13;8.80;;;;;;;0.72;65.53;99006.56;5138833;27;20043;-93
2022/03/03 04:43:49;;;;;;;18.27;10.07;;;;;;;0.82;66.64;99020.66;5130258;27;20150;-94
2022/03/03 04:46:15;;;;;;;18.38;9.15;;;;;;;0.74;65.78;99004.00;5132113;27;20047;-92
2022/03/03 04:48:40;;;;;;;18.25;9.85;;;;;;;0.76;62.10;98997.00;5129414;27;20372;-92
2022/03/03 04:51:06;;;;;;;19.33;10.20;;;;;;;0.88;59.49;99001.56;5125619;27;20035;-93
2022/03/03 04:53:32;;;;;;;19.45;10.57;;;;;;;1.16;56.95;99010.72;5136907;27;20044;-93
2022/03/03 04:56:00;;;;;;;19.90;10.27;;;;;;;1.11;59.31;99002.81;5138613;27;20035;-92
2022/03/03 04:58:26;;;;;;;18.45;9.80;;;;;;;1.09;61.28;98994.03;5138385;27;20047;-93
2022/03/03 05:00:52;;;;;;;20.80;10.95;;;;;;;1.10;63.03;99002.75;5132830;27;20519;-93
2022/03/03 05:03:18;;;;;;;27.50;14.43;;;;;;;1.17;64.46;99005.50;5117878;28;20039;-93
2022/03/03 05:05:44;;;;;;;27.50;13.85;;;;;;;1.01;66.14;98987.81;5137506;27;20043;-92
2022/03/03 05:08:13;;;;;;;33.47;13.13;;;;;;;1.01;65.95;98980.81;5139820;27;20046;-93
2022/03/03 05:10:41;;;;;;;21.83;12.70;;;;;;;1.23;66.37;98999.47;5140456;27;20130;-93
2022/03/03 05:13:09;;;;;;;21.60;12.38;;;;;;;1.13;67.01;99002.78;5139968;27;20111;-93
2022/03/03 05:15:35;;;;;;;22.17;12.27;;;;;;;1.13;67.19;99016.78;5134339;27;20043;-91
2022/03/03 05:18:01;;;;;;;21.10;12.30;;;;;;;0.97;67.18;98992.09;5138834;27;20077;-93
2022/03/03 05:20:27;;;;;;;22.17;11.70;;;;;;;0.91;66.97;98984.19;5137920;27;20043;-92
2022/03/03 05:22:53;;;;;;;19.58;10.05;;;;;;;0.91;67.07;98967.56;5133565;27;20082;-92
2022/03/03 05:25:22;;;;;;;19.98;11.52;;;;;;;0.95;67.35;98993.81;5139563;27;20100;-94
2022/03/03 05:27:47;;;;;;;21.63;11.45;;;;;;;0.85;67.86;98988.41;5138904;27;20131;-93
2022/03/03 05:30:16;;;;;;;23.58;11.90;;;;;;;0.80;67.81;98986.63;5139108;27;20067;-92
2022/03/03 05:32:43;;;;;;;18.97;11.17;;;;;;;0.86;68.15;98985.81;5130651;27;20043;-90
2022/03/03 05:35:09;;;;;;;20.80;10.57;;;;;;;0.76;67.71;98971.72;5125083;27;20365;-91
2022/03/03 05:37:35;;;;;;;19.30;10.50;;;;;;;0.86;64.15;98988.44;5139565;27;20105;-93
2022/03/03 05:40:02;;;;;;;20.10;10.73;;;;;;;0.82;60.91;98971.84;5140562;27;20035;-95
2022/03/03 05:42:29;;;;;;;19.67;10.18;;;;;;;1.11;58.05;98996.69;5137070;27;20047;-94
2022/03/03 05:44:59;;;;;;;20.08;10.30;;;;;;;0.97;57.27;98951.94;5119213;28;20046;-95
2022/03/03 05:47:29;;;;;;;19.08;9.65;;;;;;;1.05;57.35;98952.94;5119115;28;20479;-96
2022/03/03 05:49:56;;;;;;;16.45;9.70;;;;;;;1.07;56.55;98955.59;5120929;27;20035;-95
2022/03/03 05:52:28;;;;;;;16.35;9.52;;;;;;;1.18;56.78;98954.88;5123100;27;20050;-94
2022/03/03 05:54:56;;;;;;;17.50;9.67;;;;;;;1.18;57.48;98960.09;5119443;28;20036;-93
2022/03/03 05:57:27;;;;;;;18.98;9.57;;;;;;;1.21;58.42;98967.13;5119830;28;20050;-93
2022/03/03 05:59:56;;;;;;;17.85;9.68;;;;;;;1.14;59.51;98952.19;5137013;27;20040;-95
2022/03/03 06:02:22;;;;;;;18.77;10.23;;;;;;;1.37;57.86;98963.84;5137593;27;20153;-92
2022/03/03 06:04:51;;;;;;;16.27;9.32;;;;;;;1.36;57.90;98964.69;5134545;27;20039;-93
2022/03/03 06:07:25;;;;;;;20.83;10.57;;;;;;;1.52;58.45;98988.47;5134060;27;20066;-92
2022/03/03 06:09:54;;;;;;;18.42;9.93;;;;;;;1.47;60.07;98972.69;5134588;27;20042;-92
2022/03/03 06:12:34;;;;;;;19.48;10.50;;;;;;;1.39;61.95;98977.84;5135216;27;20043;-93
2022/03/03 06:15:03;;;;;;;19.05;10.23;;;;;;;1.34;62.32;98969.03;5121936;27;20130;-94
2022/03/03 06:17:30;;;;;;;21.45;11.18;;;;;;;1.55;62.91;98996.41;5117110;28;20044;-94
2022/03/03 06:20:00;;;;;;;19.23;10.73;;;;;;;1.46;64.12;98959.59;5137235;27;20557;-94
2022/03/03 06:22:29;;;;;;;20.58;11.50;;;;;;;1.47;64.49;98959.59;5138522;27;20039;-95
2022/03/03 06:24:54;;;;;;;22.25;11.57;;;;;;;1.56;63.85;98969.31;5135006;27;20099;-95
2022/03/03 06:27:20;;;;;;;24.42;12.45;;;;;;;1.78;63.81;98989.69;5136161;27;20042;-92
2022/03/03 06:29:46;;;;;;;22.90;12.30;;;;;;;1.72;64.73;98963.41;5117596;28;20044;-93
2022/03/03 06:32:13;;;;;;;23.23;11.85;;;;;;;1.88;64.19;98971.44;5127956;27;20066;-93
2022/03/03 06:34:40;;;;;;;25.98;13.35;;;;;;;1.93;64.28;98972.34;5129573;27;20043;-93
2022/03/03 06:37:08;;;;;;;25.08;14.40;;;;;;;2.02;63.99;98982.97;5126303;27;20465;-93
2022/03/03 06:39:34;;;;;;;25.77;14.07;;;;;;;2.11;64.01;98993.53;5116381;28;20422;-94
2022/03/03 06:42:02;;;;;;;25.67;14.32;;;;;;;1.82;64.58;98965.28;5118270;28;20047;-93
2022/03/03 06:44:28;;;;;;;28.38;15.35;;;;;;;1.87;64.93;98972.31;5116212;28;20040;-94
2022/03/03 06:46:57;;;;;;;27.38;14.45;;;;;;;1.86;64.55;98966.16;5122682;27;20054;-93
2022/03/03 06:49:26;;;;;;;27.90;15.23;;;;;;;2.00;64.66;98982.06;5130762;27;20043;-93
2022/03/03 06:51:55;;;;;;;28.23;15.97;;;;;;;2.08;64.47;98995.25;5135705;27;20101;-93
2022/03/03 06:54:23;;;;;;;27.02;15.18;;;;;;;1.98;64.01;98975.91;5135538;27;20065;-94
2022/03/03 06:56:51;;;;;;;29.33;15.15;;;;;;;1.99;64.43;98969.78;5135824;27;20500;-95
2022/03/03 06:59:18;;;;;;;27.58;14.88;;;;;;;2.10;64.09;98968.16;5135611;27;20039;-94
2022/03/03 07:01:46;;;;;;;33.00;16.55;;;;;;;2.24;64.11;98969.19;5135811;27;20049;-95
2022/03/03 07:04:13;;;;;;;32.35;16.50;;;;;;;2.37;65.07;98985.06;5136249;27;20077;-94
2022/03/03 07:06:40;;;;;;;34.47;17.05;;;;;;;2.35;65.30;98966.66;5135947;27;20049;-95
2022/03/03 07:09:08;;;;;;;29.60;16.00;;;;;;;2.43;65.44;98982.50;5135876;27;20043;-95
2022/03/03 07:11:37;;;;;;;31.40;16.00;;;;;;;2.53;65.20;98997.44;5135811;28;20126;-95
2022/03/03 07:14:04;;;;;;;38.08;17.00;;;;;;;2.68;65.30;99018.56;5135437;27;20559;-93
2022/03/03 07:16:38;;;;;;;31.70;16.52;;;;;;;2.59;65.59;99000.09;5135278;27;20039;-93
2022/03/03 07:19:13;;;;;;;29.38;17.50;;;;;;;2.59;65.18;98984.34;5135208;28;20047;-93
2022/03/03 07:21:50;;;;;;;31.80;18.08;;;;;;;2.73;65.00;99001.97;5136132;28;20054;-92
2022/03/03 07:24:25;;;;;;;31.05;17.48;;;;;;;2.82;65.28;99016.06;5136040;28;20394;-94
2022/03/03 07:26:57;;;;;;;37.72;17.38;;;;;;;2.82;64.55;99010.81;5136048;28;20045;-92
2022/03/03 07:29:26;;;;;;;36.45;16.98;;;;;;;2.91;64.80;99017.88;5136845;28;20123;-93
2022/03/03 07:31:56;;;;;;;;;;;;;;;2.95;64.37;99008.25;5140037;28;20044;-94
2022/03/03 07:34:28;;;;;;;33.75;17.85;;;;;;;2.86;64.30;98983.72;5129074;28;19930;-94
2022/03/03 07:37:02;;;;;;;33.33;18.42;;;;;;;2.94;64.16;98982.88;5119486;28;20576;-94
2022/03/03 07:42:44;;;;;;;37.13;17.90;;;;;;;2.99;63.46;98978.53;5076963;27;20415;-94
2022/03/03 07:45:11;;;;;;;36.38;19.27;;;;;;;3.00;63.82;98981.16;5076749;28;20073;-94
2022/03/03 07:47:39;;;;;;;38.60;19.30;;;;;;;3.23;63.37;99009.31;5076554;28;20048;-94
2022/03/03 07:50:06;;;;;;;33.85;18.52;;;;;;;3.24;63.33;98995.34;5077825;28;20052;-95
2022/03/03 07:52:35;;;;;;;35.85;18.05;;;;;;;3.22;63.34;98981.31;5077364;28;20051;-94
2022/03/03 07:55:01;;;;;;;41.58;18.63;;;;;;;3.37;62.54;98991.03;5075217;28;20045;-94
2022/03/03 07:57:41;;;;;;;35.95;18.70;;;;;;;3.33;62.14;98984.88;5072907;28;20041;-94
2022/03/03 08:00:13;;;;;;;34.05;18.48;;;;;;;3.57;62.10;98988.50;5072894;28;20051;-94
2022/03/03 08:02:41;;;;;;;38.03;19.13;;;;;;;3.78;60.95;98996.47;5073932;28;20494;-94
2022/03/03 08:05:08;;;;;;;38.92;19.13;;;;;;;3.89;60.63;98986.84;5074117;28;20079;-95
2022/03/03 08:07:41;;;;;;;40.78;19.63;;;;;;;4.19;59.67;98993.09;5073772;28;20064;-94
2022/03/03 08:10:08;;;;;;;37.38;19.77;;;;;;;4.36;58.58;98979.06;5072981;28;20044;-94
2022/03/03 08:12:35;;;;;;;34.03;19.13;;;;;;;4.71;57.43;99005.44;5073349;28;20151;-95
2022/03/03 08:15:03;;;;;;;44.00;18.20;;;;;;;4.81;57.13;98993.13;5073105;28;20048;-95
2022/03/03 08:17:34;;;;;;;37.13;17.90;;;;;;;4.98;55.95;99004.53;5073961;28;20036;-94
2022/03/03 08:20:05;;;;;;;36.20;17.77;;;;;;;5.12;55.42;98979.03;5074009;28;20404;-94
2022/03/03 08:22:32;;;;;;;42.88;17.65;;;;;;;5.27;55.10;98990.41;5074202;28;20056;-95
2022/03/03 08:24:58;;;;;;;33.30;17.92;;;;;;;5.22;55.20;98971.97;5074447;28;20136;-94
2022/03/03 08:27:26;;;;;;;35.90;19.08;;;;;;;5.27;55.65;98969.31;5074858;28;20076;-94
2022/03/03 08:29:52;;;;;;;36.63;18.13;;;;;;;5.45;56.07;98992.16;5076054;28;20120;-95
2022/03/03 08:32:20;;;;;;;38.42;19.05;;;;;;;5.63;55.38;98988.56;5074116;28;20051;-94
2022/03/03 08:34:57;;;;;;;36.35;18.70;;;;;;;5.49;55.91;98971.03;5075227;28;20048;-94
2022/03/03 08:37:30;;;;;;;37.13;19.83;;;;;;;5.44;56.41;98970.16;5073579;28;20051;-94
2022/03/03 08:40:01;;;;;;;32.78;19.88;;;;;;;5.53;56.21;98985.97;5074700;28;20049;-94
2022/03/03 08:42:34;;;;;;;40.53;19.55;;;;;;;5.59;56.64;98977.13;5073978;28;20092;-94
2022/03/03 08:45:09;;;;;;;38.22;18.75;;;;;;;5.68;55.64;98978.88;5074228;28;20055;-95
2022/03/03 08:47:35;;;;;;;35.30;18.90;;;;;;;5.79;55.56;98992.00;5074718;28;20075;-94
2022/03/03 08:50:08;;;;;;;;;;;;;;;5.76;55.01;99001.69;5074340;28;20553;-96
2022/03/03 08:52:37;;;;;;;33.75;17.95;;;;;;;5.63;55.29;98981.53;5067317;28;19924;-94
2022/03/03 08:55:06;;;;;;;;;;;;;;;5.80;55.13;98993.78;5059743;28;20047;-94
2022/03/03 08:57:32;;;;;;;30.65;16.58;;;;;;;5.81;55.19;98977.06;5058971;28;19964;-93
2022/03/03 08:59:58;;;;;;;37.90;19.63;;;;;;;5.89;54.31;98984.06;5058268;28;20065;-95
2022/03/03 09:02:24;;;;;;;36.17;19.58;;;;;;;5.95;53.65;98972.63;5059089;28;20371;-94
2022/03/03 09:04:51;;;;;;;39.05;19.23;;;;;;;6.12;53.47;98972.53;5059724;28;20049;-93
2022/03/03 09:07:18;;;;;;;37.85;21.13;;;;;;;6.21;50.71;98961.91;5058994;28;20045;-94
2022/03/03 09:09:44;;;;;;;34.03;17.52;;;;;;;6.17;47.96;98987.44;5058409;28;20521;-95
2022/03/03 09:12:13;;;;;;;34.00;17.15;;;;;;;5.89;45.27;98965.56;5058137;28;20053;-92
2022/03/03 09:14:39;;;;;;;30.75;15.82;;;;;;;5.94;45.08;98968.19;5058154;28;20079;-94
2022/03/03 09:17:07;;;;;;;27.58;15.57;;;;;;;5.60;45.71;98957.81;5057481;28;20418;-94
2022/03/03 09:19:33;;;;;;;29.58;15.48;;;;;;;5.51;46.98;98969.28;5057627;28;20064;-94
2022/03/03 09:21:59;;;;;;;32.13;17.23;;;;;;;5.91;46.78;98974.38;5058321;28;20474;-94
2022/03/03 09:24:26;;;;;;;28.88;14.25;;;;;;;5.91;45.10;98961.16;5058394;28;20045;-94
2022/03/03 09:26:54;;;;;;;25.23;12.80;;;;;;;6.44;42.57;98971.44;5058516;28;20056;-94
2022/03/03 09:29:21;;;;;;;28.33;13.85;;;;;;;6.28;41.87;98953.06;5058337;28;20556;-95
2022/03/03 09:31:46;;;;;;;24.80;12.90;;;;;;;6.50;41.69;98964.34;5058988;28;20045;-94
2022/03/03 09:34:13;;;;;;;22.05;11.68;;;;;;;6.38;40.81;98941.53;5061599;28;20045;-95
2022/03/03 09:36:39;;;;;;;25.80;13.88;;;;;;;6.52;41.81;98943.19;5061799;28;20128;-95
2022/03/03 09:39:11;;;;;;;23.10;12.18;;;;;;;6.48;38.76;98941.47;5060311;28;20049;-93
2022/03/03 09:41:41;;;;;;;28.70;15.37;;;;;;;6.33;41.43;98960.94;5046635;28;20397;-94
2022/03/03 09:44:07;;;;;;;24.00;13.52;;;;;;;6.26;42.20;98946.03;5056632;28;20401;-95
2022/03/03 09:46:36;;;;;;;24.05;14.27;;;;;;;6.42;43.22;98934.50;5056502;28;20051;-94
2022/03/03 09:49:06;;;;;;;27.92;13.73;;;;;;;6.63;43.62;98951.91;5056342;28;20049;-93
2022/03/03 09:51:32;;;;;;;23.92;14.02;;;;;;;6.88;44.73;98949.06;5056474;28;20075;-94
2022/03/03 09:53:58;;;;;;;41.63;14.40;;;;;;;7.34;42.94;98938.00;5056629;28;20095;-93
2022/03/03 09:56:25;;;;;;;25.90;13.40;;;;;;;7.57;42.63;98929.81;5056254;28;20048;-93
2022/03/03 09:58:58;;;;;;;27.30;14.48;;;;;;;7.86;43.11;98937.38;5056078;28;20040;-94
2022/03/03 10:01:27;;;;;;;26.27;13.95;;;;;;;8.05;43.60;98929.19;5055315;28;20048;-94
2022/03/03 10:03:54;;;;;;;24.77;13.93;;;;;;;8.22;41.84;98943.06;5055904;28;20045;-94
2022/03/03 10:06:22;;;;;;;28.27;13.98;;;;;;;7.95;41.85;98917.81;5055946;28;20129;-94
2022/03/03 10:08:50;;;;;;;27.95;14.65;;;;;;;8.12;41.93;98917.59;5055851;28;20045;-93
2022/03/03 10:11:19;;;;;;;24.02;13.20;;;;;;;8.52;41.38;98943.50;5055976;28;20037;-95
2022/03/03 10:13:50;;;;;;;32.25;15.38;;;;;;;8.64;41.63;98919.44;5056669;28;20048;-93
2022/03/03 10:16:23;;;;;;;27.73;15.52;;;;;;;8.86;41.33;98912.00;5057270;28;20095;-94
2022/03/03 10:18:59;;;;;;;27.02;15.32;;;;;;;9.01;40.21;98906.41;5057929;28;20037;-95
2022/03/03 10:21:27;;;;;;;28.70;14.82;;;;;;;9.30;40.47;98910.25;5057314;28;20498;-94
2022/03/03 10:23:53;;;;;;;28.55;15.40;;;;;;;9.49;40.23;98917.88;5062318;28;20055;-93
2022/03/03 10:26:34;;;;;;;30.50;15.52;;;;;;;9.57;40.31;98914.16;5056775;28;20490;-95
2022/03/03 10:28:59;;;;;;;27.30;14.13;;;;;;;9.48;39.85;98900.19;5059936;28;20041;-95
2022/03/03 10:31:28;;;;;;;31.08;16.65;;;;;;;9.37;39.99;98900.44;5058524;28;20087;-95
2022/03/03 10:33:57;;;;;;;30.08;15.70;;;;;;;9.36;40.31;98894.22;5060758;28;20055;-95
2022/03/03 10:36:26;;;;;;;29.20;15.63;;;;;;;9.23;40.00;98876.81;5058084;28;20064;-94
2022/03/03 10:38:58;;;;;;;31.88;16.63;;;;;;;9.36;40.21;98880.09;5057515;28;20312;-94
2022/03/03 10:41:43;;;;;;;29.17;15.50;;;;;;;9.08;40.63;98875.31;5059369;28;20128;-94
2022/03/03 10:44:10;;;;;;;29.65;15.88;;;;;;;9.49;40.01;98901.94;5059300;28;20045;-94
2022/03/03 10:46:40;;;;;;;32.72;15.88;;;;;;;9.30;39.82;98872.25;5062899;28;20135;-94
2022/03/03 10:49:22;;;;;;;28.25;15.07;;;;;;;9.53;39.85;98899.19;5060987;28;20048;-95
2022/03/03 10:51:49;;;;;;;27.02;14.10;;;;;;;9.53;40.22;98885.06;5059164;28;20052;-95
2022/03/03 10:54:15;;;;;;;28.77;14.13;;;;;;;9.56;40.44;98877.00;5058688;28;20044;-95
2022/03/03 10:56:46;;;;;;;28.83;15.05;;;;;;;9.54;40.93;98866.44;5058063;28;20047;-94
2022/03/03 10:59:20;;;;;;;28.77;15.25;;;;;;;9.68;40.50;98878.56;5057505;28;20406;-94
2022/03/03 11:01:53;;;;;;;28.92;14.43;;;;;;;9.57;40.66;98850.44;5057512;28;20132;-93
2022/03/03 11:04:23;;;;;;;26.40;14.93;;;;;;;9.65;40.05;98855.59;5058098;28;20109;-95
2022/03/03 11:06:53;;;;;;;31.10;16.25;;;;;;;9.54;41.11;98869.09;5057828;28;20053;-93
2022/03/03 11:09:20;;;;;;;27.80;15.32;;;;;;;9.27;41.05;98867.88;5059637;28;20136;-94
2022/03/03 11:11:46;;;;;;;26.85;14.60;;;;;;;9.17;41.12;98839.78;5059367;28;20044;-93
2022/03/03 11:14:12;;;;;;;28.38;14.73;;;;;;;9.19;42.02;98841.50;5058436;28;20045;-94
2022/03/03 11:16:41;;;;;;;28.92;15.27;;;;;;;9.24;41.18;98841.44;5057554;28;20045;-94
2022/03/03 11:19:10;;;;;;;28.23;14.65;;;;;;;9.29;41.47;98852.81;5058218;28;20083;-94
2022/03/03 11:21:36;;;;;;;37.28;15.65;;;;;;;9.23;42.07;98848.47;5057405;28;20041;-94
2022/03/03 11:24:03;;;;;;;30.58;16.15;;;;;;;9.28;42.51;98859.00;5059887;28;20048;-93
2022/03/03 11:26:34;;;;;;;26.63;14.27;;;;;;;9.28;41.90;98834.25;5060042;28;20049;-94
2022/03/03 11:29:07;;;;;;;24.83;12.98;;;;;;;9.21;40.78;98828.19;5060250;28;20049;-94
2022/03/03 11:31:37;;;;;;;22.25;12.48;;;;;;;9.30;40.19;98820.03;5060158;28;20041;-95
2022/03/03 11:34:26;;;;;;;23.65;12.80;;;;;;;9.52;40.40;98849.69;5060039;28;20048;-93